Time;durP1;ratioP1;P1;durP2;ratioP2;P2;SDS_P1;SDS_P2;PMS_P1;PMS_P2;Temp;Humidity;BMP_temperature;BMP_pressure;BME280_temperature;BME280_humidity;BME280_pressure;Samples;Min_cycle;Max_cycle;Signal;HPM_P1;HPM_P2
2023/01/16 00:00:46;;;;;;;6.93;1.98;;;7.10;96.20;;;;;;5039039;28;20484;-73
2023/01/16 00:03:11;;;;;;;11.55;2.80;;;7.10;96.20;;;;;;5044316;28;20032;-75
2023/01/16 00:05:37;;;;;;;4.18;1.35;;;7.10;96.40;;;;;;5034097;28;20048;-74
2023/01/16 00:08:03;;;;;;;9.63;2.53;;;7.10;96.50;;;;;;5039164;28;20025;-74
2023/01/16 00:10:29;;;;;;;8.35;1.83;;;7.10;96.50;;;;;;5013860;28;20033;-74
2023/01/16 00:12:54;;;;;;;4.95;1.25;;;7.10;96.60;;;;;;5036970;28;20021;-74
2023/01/16 00:15:20;;;;;;;7.35;1.77;;;7.00;96.60;;;;;;5030831;28;20033;-75
2023/01/16 00:17:47;;;;;;;7.28;1.83;;;7.00;96.70;;;;;;5023697;28;20056;-74
2023/01/16 00:20:13;;;;;;;6.93;1.92;;;7.00;96.70;;;;;;5047039;28;20502;-73
2023/01/16 00:22:39;;;;;;;7.13;2.10;;;7.00;96.90;;;;;;5021218;28;20033;-74
2023/01/16 00:25:05;;;;;;;6.68;2.33;;;6.90;97.00;;;;;;5057551;28;20085;-74
2023/01/16 00:27:31;;;;;;;5.47;2.53;;;6.90;97.10;;;;;;5036796;28;20034;-73
2023/01/16 00:29:56;;;;;;;8.93;2.17;;;6.90;97.30;;;;;;5052183;28;20109;-73
2023/01/16 00:32:22;;;;;;;6.88;2.20;;;6.90;97.40;;;;;;5021475;28;20101;-73
2023/01/16 00:34:47;;;;;;;6.80;2.28;;;6.90;97.30;;;;;;5034828;28;20021;-73
2023/01/16 00:37:13;;;;;;;6.13;3.03;;;6.90;97.30;;;;;;5028672;28;20837;-74
2023/01/16 00:39:39;;;;;;;7.93;3.50;;;6.80;97.30;;;;;;5045925;28;20029;-74
2023/01/16 00:42:05;;;;;;;6.60;3.15;;;6.80;97.70;;;;;;5042286;28;20018;-73
2023/01/16 00:44:31;;;;;;;8.55;3.78;;;6.80;97.40;;;;;;5045602;28;20024;-74
2023/01/16 00:46:57;;;;;;;7.95;5.00;;;6.80;97.40;;;;;;5044113;28;20033;-74
2023/01/16 00:49:22;;;;;;;8.45;5.25;;;6.90;97.40;;;;;;5040847;28;20039;-75
2023/01/16 00:51:48;;;;;;;8.82;4.85;;;6.80;97.40;;;;;;5023487;28;20028;-74
2023/01/16 00:54:14;;;;;;;7.32;5.38;;;6.80;97.40;;;;;;5036141;28;20025;-74
2023/01/16 00:56:39;;;;;;;8.90;6.18;;;6.80;97.40;;;;;;5033824;28;20028;-74
2023/01/16 00:59:05;;;;;;;8.25;5.70;;;6.80;97.30;;;;;;5033062;28;20028;-73
2023/01/16 01:01:30;;;;;;;10.27;7.00;;;6.80;97.30;;;;;;5052564;28;20020;-73
2023/01/16 01:03:59;;;;;;;10.18;8.50;;;6.70;97.30;;;;;;5045893;28;20021;-74
2023/01/16 01:06:24;;;;;;;10.68;8.13;;;6.60;97.40;;;;;;5048897;28;20032;-74
2023/01/16 01:08:50;;;;;;;12.90;7.85;;;6.70;97.50;;;;;;5036397;28;20032;-74
2023/01/16 01:11:16;;;;;;;11.55;9.27;;;6.70;97.40;;;;;;5036162;28;20094;-74
2023/01/16 01:13:42;;;;;;;12.57;9.27;;;6.60;97.30;;;;;;5016829;28;20052;-74
2023/01/16 01:16:09;;;;;;;12.13;9.30;;;6.40;97.30;;;;;;5041195;28;20163;-75
2023/01/16 01:18:35;;;;;;;9.40;7.40;;;6.50;97.50;;;;;;5031426;28;20082;-73
2023/01/16 01:21:01;;;;;;;10.32;8.70;;;6.50;97.40;;;;;;5022827;28;20398;-74
2023/01/16 01:23:27;;;;;;;10.90;7.68;;;6.50;97.10;;;;;;5056191;28;20163;-73
2023/01/16 01:25:53;;;;;;;11.18;8.13;;;6.50;97.10;;;;;;5040707;28;20078;-74
2023/01/16 01:28:19;;;;;;;15.27;9.43;;;6.50;97.20;;;;;;5041188;28;20333;-73
2023/01/16 01:30:45;;;;;;;10.95;8.73;;;6.50;97.10;;;;;;5022616;28;20184;-73
2023/01/16 01:33:10;;;;;;;11.05;8.27;;;6.40;97.10;;;;;;5035513;28;20562;-73
2023/01/16 01:35:37;;;;;;;12.40;9.30;;;6.40;97.20;;;;;;5046893;28;20559;-73
2023/01/16 01:38:03;;;;;;;11.93;7.82;;;6.40;97.10;;;;;;5059264;28;20498;-73
2023/01/16 01:40:29;;;;;;;14.40;9.30;;;6.50;97.10;;;;;;5053656;28;20028;-73
2023/01/16 01:42:55;;;;;;;12.90;7.85;;;6.50;97.20;;;;;;5054438;28;20021;-73
2023/01/16 01:45:24;;;;;;;10.98;8.00;;;6.50;97.30;;;;;;5034879;28;22362;-74
2023/01/16 01:47:54;;;;;;;9.35;6.47;;;6.50;97.40;;;;;;5049156;28;20104;-73
2023/01/16 01:50:35;;;;;;;7.75;5.57;;;6.50;97.40;;;;;;5036862;28;20025;-73
2023/01/16 01:53:08;;;;;;;8.52;5.70;;;6.50;97.50;;;;;;5032934;28;20026;-74
2023/01/16 01:55:34;;;;;;;8.55;6.00;;;6.40;97.70;;;;;;5031387;28;20384;-74
2023/01/16 01:58:01;;;;;;;10.40;5.72;;;6.40;97.80;;;;;;5055699;28;20036;-74
2023/01/16 02:00:28;;;;;;;9.10;5.65;;;6.40;97.90;;;;;;5055704;28;20024;-74
2023/01/16 02:03:07;;;;;;;10.95;6.10;;;6.50;97.90;;;;;;5049871;28;20017;-74
2023/01/16 02:05:44;;;;;;;8.82;5.25;;;6.50;97.80;;;;;;5039314;28;20072;-74
2023/01/16 02:08:14;;;;;;;9.07;4.85;;;6.50;97.60;;;;;;5048307;28;20071;-74
2023/01/16 02:10:50;;;;;;;8.77;4.30;;;6.50;97.60;;;;;;5042526;28;20052;-74
2023/01/16 02:13:15;;;;;;;9.25;4.32;;;6.50;97.50;;;;;;5048456;28;20028;-75
2023/01/16 02:19:15;;;;;;;11.40;3.72;;;6.60;97.60;;;;;;5041993;28;20025;-72
2023/01/16 02:21:41;;;;;;;8.00;2.60;;;6.50;97.40;;;;;;5031823;28;20985;-73
2023/01/16 02:24:28;;;;;;;9.63;2.88;;;6.50;97.40;;;;;;5051325;28;20042;-73
2023/01/16 02:27:15;;;;;;;11.98;2.97;;;6.40;97.10;;;;;;5033972;28;20043;-74
2023/01/16 02:30:31;;;;;;;7.82;2.50;;;6.40;97.20;;;;;;5049139;28;20048;-74
2023/01/16 02:33:18;;;;;;;9.18;2.80;;;6.40;97.10;;;;;;5012932;28;20052;-75
2023/01/16 02:36:03;;;;;;;13.95;2.83;;;6.30;97.00;;;;;;5035425;28;20041;-74
2023/01/16 02:38:42;;;;;;;8.65;2.90;;;6.40;97.00;;;;;;5045334;28;20102;-74
2023/01/16 02:41:14;;;;;;;12.15;2.50;;;6.50;96.90;;;;;;5030815;28;20033;-74
2023/01/16 02:43:54;;;;;;;7.18;2.22;;;6.50;96.90;;;;;;5045631;28;20098;-73
2023/01/16 02:46:39;;;;;;;10.18;2.17;;;6.50;96.90;;;;;;5044250;28;20042;-74
2023/01/16 02:49:30;;;;;;;27.05;3.28;;;6.50;96.90;;;;;;5047434;28;20029;-74
2023/01/16 02:52:17;;;;;;;7.32;1.95;;;6.60;96.70;;;;;;5012609;28;20025;-74
2023/01/16 02:55:02;;;;;;;9.15;2.25;;;6.60;96.70;;;;;;5042294;28;20033;-73
2023/01/16 02:57:34;;;;;;;8.75;1.88;;;6.50;96.50;;;;;;5039227;28;20089;-74
2023/01/16 03:00:01;;;;;;;7.93;2.15;;;6.50;96.70;;;;;;5049448;28;20033;-73
2023/01/16 03:02:27;;;;;;;8.52;2.17;;;6.40;96.70;;;;;;5043757;28;20079;-75
2023/01/16 03:04:53;;;;;;;8.60;1.92;;;6.40;96.70;;;;;;5056430;28;20037;-74
2023/01/16 03:07:37;;;;;;;7.82;1.70;;;6.40;96.70;;;;;;5029838;28;20458;-74
2023/01/16 03:10:24;;;;;;;9.35;1.92;;;6.40;96.70;;;;;;5051457;28;20119;-74
2023/01/16 03:13:02;;;;;;;8.85;2.22;;;6.40;96.70;;;;;;5039759;28;20034;-75
2023/01/16 03:15:37;;;;;;;14.10;2.88;;;6.30;96.60;;;;;;5050282;28;20028;-74
2023/01/16 03:18:03;;;;;;;7.57;2.42;;;6.40;96.60;;;;;;5051823;28;20593;-74
2023/01/16 03:21:04;;;;;;;9.52;2.22;;;6.40;96.70;;;;;;5044162;28;20025;-74
2023/01/16 03:23:30;;;;;;;7.82;1.92;;;6.30;96.70;;;;;;5040373;28;20576;-74
2023/01/16 03:26:03;;;;;;;6.40;1.90;;;6.30;96.60;;;;;;5043468;28;20040;-74
2023/01/16 03:28:36;;;;;;;9.48;2.03;;;6.30;96.60;;;;;;5028843;28;20049;-74
2023/01/16 03:31:11;;;;;;;6.63;1.90;;;6.30;96.60;;;;;;5057507;28;20025;-74
2023/01/16 03:34:03;;;;;;;5.72;2.30;;;6.30;96.40;;;;;;5056451;28;20092;-75
2023/01/16 03:36:40;;;;;;;7.32;1.88;;;6.20;96.40;;;;;;5036103;28;20116;-74
2023/01/16 03:39:08;;;;;;;8.85;2.03;;;6.20;96.30;;;;;;5050854;28;20114;-74
2023/01/16 03:41:37;;;;;;;5.85;1.55;;;6.20;96.30;;;;;;5051552;28;20174;-73
2023/01/16 03:44:10;;;;;;;12.70;2.25;;;6.20;96.30;;;;;;5028439;28;20118;-74
2023/01/16 03:46:47;;;;;;;17.63;3.03;;;6.20;96.40;;;;;;5044704;28;20396;-76
2023/01/16 03:49:27;;;;;;;6.80;1.77;;;6.20;96.40;;;;;;5028817;28;20733;-74
2023/01/16 03:51:59;;;;;;;8.32;1.65;;;6.20;96.40;;;;;;5060400;28;20125;-75
2023/01/16 03:54:43;;;;;;;4.32;1.85;;;6.20;96.30;;;;;;5040029;28;20029;-75
2023/01/16 03:57:32;;;;;;;14.45;2.53;;;6.10;96.30;;;;;;5051506;28;20065;-74
2023/01/16 04:00:00;;;;;;;9.40;1.90;;;6.10;96.20;;;;;;5049707;28;20486;-74
2023/01/16 04:03:03;;;;;;;8.90;2.45;;;6.10;96.30;;;;;;5044911;28;20051;-74
2023/01/16 04:05:35;;;;;;;11.43;1.77;;;6.00;96.30;;;;;;4950164;28;20121;-73
2023/01/16 04:08:08;;;;;;;10.18;2.63;;;6.00;96.40;;;;;;5037848;28;20033;-74
2023/01/16 04:10:38;;;;;;;7.25;2.00;;;6.10;96.40;;;;;;5041717;28;20056;-74
2023/01/16 04:13:20;;;;;;;11.23;2.72;;;6.10;96.40;;;;;;5033707;28;20056;-74
2023/01/16 04:15:50;;;;;;;6.25;1.73;;;6.00;96.30;;;;;;5032420;28;20108;-75
2023/01/16 04:18:15;;;;;;;6.78;1.58;;;6.00;96.30;;;;;;5065672;28;20028;-75
2023/01/16 04:20:45;;;;;;;9.18;1.70;;;6.00;96.30;;;;;;5052244;28;20048;-74
2023/01/16 04:23:12;;;;;;;8.13;2.03;;;6.00;96.30;;;;;;5046575;28;20532;-74
2023/01/16 04:25:38;;;;;;;14.65;2.70;;;6.00;96.30;;;;;;5032549;28;20484;-74
2023/01/16 04:28:04;;;;;;;5.78;1.70;;;6.00;96.30;;;;;;5051307;28;20035;-74
2023/01/16 04:30:29;;;;;;;4.88;1.42;;;6.00;96.30;;;;;;5035132;28;20057;-75
2023/01/16 04:32:55;;;;;;;9.35;1.92;;;6.00;96.30;;;;;;5039474;28;20122;-74
2023/01/16 04:35:21;;;;;;;9.98;2.10;;;6.00;96.30;;;;;;5034579;28;20443;-74
2023/01/16 04:37:46;;;;;;;7.72;2.03;;;6.00;96.30;;;;;;5012723;28;20112;-75
2023/01/16 04:40:12;;;;;;;12.13;3.00;;;6.00;96.40;;;;;;5027581;28;20029;-73
2023/01/16 04:42:38;;;;;;;11.45;2.80;;;6.00;96.40;;;;;;5031641;28;20492;-74
2023/01/16 04:45:04;;;;;;;8.05;2.10;;;5.90;96.50;;;;;;5028644;28;20039;-73
2023/01/16 04:47:30;;;;;;;14.20;3.13;;;5.90;96.50;;;;;;5034126;28;20033;-73
2023/01/16 04:49:55;;;;;;;10.95;2.80;;;5.90;96.60;;;;;;5042540;28;20032;-74
2023/01/16 04:52:21;;;;;;;9.02;2.42;;;5.90;96.60;;;;;;5039696;28;20024;-73
2023/01/16 04:54:49;;;;;;;10.20;2.30;;;5.80;96.70;;;;;;5039836;28;20045;-74
2023/01/16 04:57:14;;;;;;;13.40;3.35;;;5.80;96.90;;;;;;5046051;28;20098;-74
2023/01/16 04:59:40;;;;;;;6.10;2.25;;;5.80;97.00;;;;;;5043586;28;20017;-74
2023/01/16 05:02:05;;;;;;;9.55;2.58;;;5.80;97.10;;;;;;5031226;28;20028;-74
2023/01/16 05:04:31;;;;;;;9.07;2.15;;;5.70;97.10;;;;;;5052540;28;20498;-74
2023/01/16 05:06:57;;;;;;;7.72;2.13;;;5.70;97.20;;;;;;5028440;28;20037;-74
2023/01/16 05:09:22;;;;;;;7.75;2.13;;;5.70;97.20;;;;;;5047074;28;20048;-74
2023/01/16 05:11:48;;;;;;;10.05;1.85;;;5.70;97.30;;;;;;5028895;28;20051;-74
2023/01/16 05:14:13;;;;;;;10.25;2.75;;;5.70;97.50;;;;;;5057990;28;20052;-73
2023/01/16 05:16:41;;;;;;;11.52;2.92;;;5.70;97.60;;;;;;5028123;28;20029;-74
2023/01/16 05:19:08;;;;;;;6.63;2.92;;;5.70;97.60;;;;;;5051018;28;20021;-74
2023/01/16 05:21:34;;;;;;;5.85;1.88;;;5.70;97.70;;;;;;5052332;28;20025;-74
2023/01/16 05:23:59;;;;;;;10.68;2.92;;;5.70;97.70;;;;;;5048902;28;20477;-74
2023/01/16 05:26:25;;;;;;;11.07;3.25;;;5.70;97.70;;;;;;5036331;28;20072;-74
2023/01/16 05:28:51;;;;;;;5.93;2.30;;;5.70;97.80;;;;;;5050394;28;20055;-74
2023/01/16 05:31:16;;;;;;;13.38;3.72;;;5.70;98.00;;;;;;5042369;28;20026;-73
2023/01/16 05:33:42;;;;;;;12.05;4.20;;;5.70;98.00;;;;;;5038610;28;20369;-73
2023/01/16 05:36:08;;;;;;;10.43;3.10;;;5.80;97.90;;;;;;5027692;28;20145;-73
2023/01/16 05:38:33;;;;;;;15.50;3.97;;;5.80;97.90;;;;;;5015639;28;20028;-74
2023/01/16 05:40:59;;;;;;;8.32;3.40;;;5.80;97.90;;;;;;5032190;28;20060;-74
2023/01/16 05:43:25;;;;;;;13.15;4.70;;;5.80;97.90;;;;;;5029881;28;20022;-74
2023/01/16 05:45:51;;;;;;;13.73;3.42;;;5.70;97.90;;;;;;5041788;28;20033;-74
2023/01/16 05:48:16;;;;;;;14.38;4.72;;;5.80;97.80;;;;;;5039673;28;20796;-75
2023/01/16 05:50:42;;;;;;;9.65;3.17;;;5.90;97.90;;;;;;5041055;28;20099;-74
2023/01/16 05:53:08;;;;;;;9.90;3.97;;;5.90;97.80;;;;;;5039426;28;20049;-74
2023/01/16 05:55:42;;;;;;;10.77;2.80;;;6.00;97.70;;;;;;5046050;28;20650;-74
2023/01/16 05:58:10;;;;;;;12.55;3.40;;;5.90;97.70;;;;;;5038335;28;20045;-74
2023/01/16 06:00:36;;;;;;;8.20;2.97;;;6.00;97.80;;;;;;5044966;28;20771;-74
2023/01/16 06:03:02;;;;;;;9.75;2.60;;;6.00;97.80;;;;;;5042040;28;20025;-74
2023/01/16 06:05:28;;;;;;;13.40;2.95;;;6.00;97.70;;;;;;5041331;28;20029;-74
2023/01/16 06:07:55;;;;;;;9.05;1.92;;;6.00;97.70;;;;;;5058868;28;20043;-74
2023/01/16 06:10:21;;;;;;;10.32;2.45;;;6.00;97.60;;;;;;5038587;28;20380;-74
2023/01/16 06:12:47;;;;;;;10.23;2.05;;;6.00;97.80;;;;;;5058773;28;20024;-74
2023/01/16 06:15:13;;;;;;;9.60;1.95;;;6.00;97.70;;;;;;5038189;28;20031;-75
2023/01/16 06:17:38;;;;;;;9.75;2.25;;;6.00;97.60;;;;;;5058852;28;20028;-74
2023/01/16 06:20:04;;;;;;;4.47;1.70;;;5.90;97.60;;;;;;5048329;28;20535;-74
2023/01/16 06:22:30;;;;;;;6.35;1.65;;;5.90;97.60;;;;;;5052325;28;20028;-74
2023/01/16 06:24:55;;;;;;;4.60;1.40;;;5.90;97.50;;;;;;5034838;28;20025;-74
2023/01/16 06:27:21;;;;;;;7.95;2.28;;;5.80;97.40;;;;;;5048360;28;20511;-75
2023/01/16 06:29:47;;;;;;;7.05;1.42;;;5.90;97.60;;;;;;5019854;28;20133;-74
2023/01/16 06:32:12;;;;;;;9.32;2.75;;;5.80;97.50;;;;;;5036319;28;20553;-74
2023/01/16 06:34:38;;;;;;;10.02;2.03;;;5.90;97.30;;;;;;5022590;28;20061;-73
2023/01/16 06:37:04;;;;;;;6.85;2.00;;;5.90;97.50;;;;;;5051323;28;20384;-74
2023/01/16 06:39:30;;;;;;;7.40;1.55;;;5.80;97.20;;;;;;5042816;28;20029;-74
2023/01/16 06:41:56;;;;;;;8.32;1.42;;;5.80;97.30;;;;;;5044724;28;20021;-74
2023/01/16 06:44:22;;;;;;;5.28;1.30;;;5.80;97.30;;;;;;5051360;28;20107;-74
2023/01/16 06:46:47;;;;;;;7.40;1.60;;;5.90;97.30;;;;;;5040853;28;20124;-73
2023/01/16 06:49:13;;;;;;;5.95;1.40;;;5.90;97.50;;;;;;5042627;28;20495;-73
2023/01/16 06:51:38;;;;;;;6.43;1.40;;;5.90;97.50;;;;;;5047713;28;20025;-73
2023/01/16 06:54:16;;;;;;;5.88;1.48;;;5.90;97.30;;;;;;5043738;28;20075;-75
2023/01/16 06:56:41;;;;;;;5.10;1.48;;;5.90;97.50;;;;;;5044641;28;20393;-73
2023/01/16 06:59:07;;;;;;;6.10;1.30;;;5.80;97.40;;;;;;5050896;28;20032;-73
2023/01/16 07:01:33;;;;;;;8.18;1.90;;;5.90;97.30;;;;;;5037433;28;20080;-72
2023/01/16 07:03:58;;;;;;;4.55;1.48;;;5.90;97.40;;;;;;5060897;28;20482;-73
2023/01/16 07:06:27;;;;;;;7.10;1.35;;;5.90;97.50;;;;;;5036694;28;20037;-73
2023/01/16 07:08:53;;;;;;;5.85;1.33;;;5.90;97.60;;;;;;5041685;28;20029;-73
2023/01/16 07:11:19;;;;;;;6.65;1.48;;;6.00;97.90;;;;;;5031042;28;20030;-74
2023/01/16 07:13:45;;;;;;;6.50;2.08;;;6.00;97.70;;;;;;5046947;28;20020;-74
2023/01/16 07:24:34;;;;;;;5.22;2.15;;;6.00;98.10;;;;;;5032775;28;20053;-75
2023/01/16 07:27:02;;;;;;;7.25;2.17;;;6.00;98.10;;;;;;5033456;28;20037;-73
2023/01/16 07:29:31;;;;;;;6.88;2.20;;;6.00;98.30;;;;;;5029591;28;20079;-74
2023/01/16 07:31:59;;;;;;;8.93;3.25;;;6.00;98.50;;;;;;5030306;28;20534;-74
2023/01/16 07:34:24;;;;;;;9.80;3.50;;;6.10;98.50;;;;;;5043492;28;20017;-74
2023/01/16 07:36:50;;;;;;;7.10;3.03;;;6.00;98.50;;;;;;5033382;28;20025;-74
2023/01/16 07:39:15;;;;;;;6.38;2.13;;;6.00;98.60;;;;;;5053330;28;20048;-74
2023/01/16 07:41:43;;;;;;;13.30;3.15;;;6.00;98.70;;;;;;5022008;28;20022;-74
2023/01/16 07:44:10;;;;;;;5.55;2.55;;;6.00;98.50;;;;;;5042869;28;20029;-74
2023/01/16 07:46:35;;;;;;;11.30;3.30;;;6.00;98.60;;;;;;5033563;28;20647;-73
2023/01/16 07:49:01;;;;;;;9.93;3.78;;;6.00;98.60;;;;;;5044113;28;20033;-74
2023/01/16 07:51:27;;;;;;;9.18;2.70;;;6.10;98.60;;;;;;5040653;28;20108;-73
2023/01/16 07:53:53;;;;;;;9.13;3.13;;;6.00;98.70;;;;;;5024407;28;20102;-75
2023/01/16 07:56:18;;;;;;;4.28;2.03;;;6.10;98.80;;;;;;5043497;28;20075;-74
2023/01/16 07:58:44;;;;;;;6.18;2.55;;;6.10;98.90;;;;;;5044238;28;20446;-76
2023/01/16 08:01:10;;;;;;;8.18;2.60;;;6.00;99.00;;;;;;5042267;28;20029;-75
2023/01/16 08:03:37;;;;;;;6.93;3.00;;;6.00;98.90;;;;;;5023096;28;20025;-77
2023/01/16 08:06:03;;;;;;;8.70;2.65;;;6.10;98.90;;;;;;5054456;28;20082;-73
2023/01/16 08:08:29;;;;;;;6.32;2.50;;;6.10;99.00;;;;;;5039980;28;20442;-75
2023/01/16 08:10:56;;;;;;;7.65;2.03;;;6.00;98.80;;;;;;5018142;28;20021;-74
2023/01/16 08:13:23;;;;;;;3.67;1.58;;;6.10;99.10;;;;;;5017660;28;20036;-75
2023/01/16 08:15:50;;;;;;;5.05;1.90;;;6.10;99.10;;;;;;5046910;28;20031;-74
2023/01/16 08:18:17;;;;;;;4.35;1.48;;;6.10;99.00;;;;;;5023974;28;20060;-75
2023/01/16 08:20:44;;;;;;;10.65;1.95;;;6.10;99.10;;;;;;5035895;28;20029;-74
2023/01/16 08:23:10;;;;;;;7.00;1.65;;;6.00;99.00;;;;;;5031121;28;20018;-81
2023/01/16 08:25:37;;;;;;;8.55;2.83;;;6.10;99.30;;;;;;5062471;28;20390;-80
2023/01/16 08:28:03;;;;;;;7.70;1.73;;;6.10;99.50;;;;;;5022907;28;20033;-81
2023/01/16 08:30:28;;;;;;;5.05;1.65;;;6.10;99.30;;;;;;5050019;28;20080;-82
2023/01/16 08:32:59;;;;;;;8.63;1.98;;;6.00;99.30;;;;;;5035750;28;20029;-80
2023/01/16 08:35:25;;;;;;;7.68;1.98;;;6.00;99.20;;;;;;5046227;28;20020;-82
2023/01/16 08:37:52;;;;;;;5.15;1.23;;;6.00;99.10;;;;;;5047615;28;20108;-82
2023/01/16 08:40:19;;;;;;;3.13;1.38;;;6.00;99.30;;;;;;5036656;28;20030;-82
2023/01/16 08:51:24;;;;;;;3.97;1.40;;;6.00;99.50;;;;;;5048560;28;20037;-82
2023/01/16 08:54:00;;;;;;;7.18;1.83;;;6.00;99.40;;;;;;5032986;28;20477;-82
2023/01/16 08:56:26;;;;;;;6.28;1.75;;;6.10;99.50;;;;;;5058098;28;20028;-81
2023/01/16 08:58:52;;;;;;;5.28;1.70;;;6.00;99.40;;;;;;5064005;28;20028;-80
2023/01/16 09:01:19;;;;;;;9.32;2.33;;;6.10;99.60;;;;;;5044943;28;20029;-81
2023/01/16 09:03:45;;;;;;;7.28;1.55;;;6.10;99.40;;;;;;5050050;28;20030;-81
2023/01/16 09:06:11;;;;;;;4.70;1.63;;;6.20;99.50;;;;;;5045371;28;20025;-79
2023/01/16 09:08:37;;;;;;;9.02;1.98;;;6.20;99.40;;;;;;5028094;28;20072;-81
2023/01/16 09:13:48;;;;;;;7.18;2.05;;;6.20;99.30;;;;;;5048819;28;20514;-81
2023/01/16 09:16:19;;;;;;;7.90;2.08;;;6.20;99.20;;;;;;5046537;28;20021;-82
2023/01/16 09:18:45;;;;;;;7.78;2.10;;;6.20;99.20;;;;;;5030516;28;20026;-80
2023/01/16 09:21:10;;;;;;;6.03;2.05;;;6.20;99.30;;;;;;5038389;28;20044;-81
2023/01/16 09:23:36;;;;;;;8.75;2.75;;;6.30;99.30;;;;;;5038597;28;20017;-80
2023/01/16 09:26:02;;;;;;;8.48;1.73;;;6.30;99.30;;;;;;5019964;28;20384;-80
2023/01/16 09:28:27;;;;;;;4.93;2.42;;;6.30;99.30;;;;;;5054305;28;20837;-78
2023/01/16 09:30:53;;;;;;;5.25;2.35;;;6.30;99.30;;;;;;5032830;28;20057;-78
2023/01/16 09:33:19;;;;;;;7.80;2.45;;;6.30;99.20;;;;;;5060745;28;20020;-79
2023/01/16 09:35:44;;;;;;;9.48;2.40;;;6.30;99.20;;;;;;5038805;28;20075;-80
2023/01/16 09:38:10;;;;;;;6.57;2.67;;;6.30;99.30;;;;;;5060477;28;20037;-79
2023/01/16 09:40:37;;;;;;;5.35;2.50;;;6.30;99.30;;;;;;5045628;28;20018;-80
2023/01/16 09:43:38;;;;;;;8.73;2.42;;;6.30;99.30;;;;;;5038206;28;20061;-80
2023/01/16 09:46:13;;;;;;;7.13;2.75;;;6.40;99.40;;;;;;5030321;28;20034;-78
2023/01/16 09:48:55;;;;;;;9.10;2.60;;;6.30;99.20;;;;;;5049838;28;20099;-80
2023/01/16 09:58:34;;;;;;;6.63;2.75;;;6.30;99.20;;;;;;5031442;28;20128;-78
2023/01/16 10:00:08;;;;;;;4.63;2.22;;;6.30;99.10;;;;;;5036766;28;20106;-77
2023/01/16 10:02:35;;;;;;;6.85;2.30;;;6.20;99.20;;;;;;5053281;28;20012;-78
2023/01/16 10:05:04;;;;;;;5.50;2.05;;;6.20;99.10;;;;;;5049065;28;20128;-79
2023/01/16 10:07:39;;;;;;;6.85;2.10;;;6.20;99.10;;;;;;5046810;28;20078;-77
2023/01/16 10:10:42;;;;;;;8.65;2.10;;;6.10;99.20;;;;;;5026341;28;20029;-78
2023/01/16 10:13:07;;;;;;;7.10;2.40;;;6.20;99.30;;;;;;5050915;28;20017;-78
2023/01/16 10:15:33;;;;;;;7.63;2.22;;;6.20;99.20;;;;;;5046839;28;20036;-76
2023/01/16 10:18:29;;;;;;;5.22;1.90;;;6.30;99.30;;;;;;5048176;28;20028;-77
2023/01/16 10:21:39;;;;;;;7.32;2.60;;;6.30;99.10;;;;;;5024701;28;20014;-77
2023/01/16 10:24:07;;;;;;;4.50;1.50;;;6.20;98.80;;;;;;4959605;28;20147;-77
2023/01/16 10:26:41;;;;;;;3.88;2.17;;;6.20;99.30;;;;;;4964734;28;20043;-77
2023/01/16 10:29:33;;;;;;;4.25;1.90;;;6.10;99.10;;;;;;5014656;28;20053;-79
2023/01/16 10:32:11;;;;;;;5.50;1.80;;;6.10;99.10;;;;;;5025417;28;20568;-77
2023/01/16 10:34:46;;;;;;;3.38;1.65;;;6.10;99.30;;;;;;5049048;28;20357;-79
2023/01/16 10:37:12;;;;;;;4.00;1.55;;;6.20;99.30;;;;;;5049810;28;20056;-78
2023/01/16 10:39:38;;;;;;;5.47;2.22;;;6.20;99.20;;;;;;5049756;28;20025;-78
2023/01/16 10:50:43;;;;;;;3.58;1.75;;;6.10;99.20;;;;;;5059998;28;20039;-78
2023/01/16 10:53:10;;;;;;;3.80;1.65;;;6.10;99.30;;;;;;5039845;28;20116;-78
2023/01/16 10:55:39;;;;;;;3.67;1.85;;;6.20;99.30;;;;;;5059905;28;20093;-77
2023/01/16 10:58:17;;;;;;;5.20;1.70;;;6.20;99.30;;;;;;5045541;28;20047;-80
2023/01/16 11:00:43;;;;;;;6.10;1.42;;;6.20;99.50;;;;;;5047683;28;20214;-80
2023/01/16 11:03:17;;;;;;;5.68;1.80;;;6.20;99.40;;;;;;5038580;28;20028;-79
2023/01/16 11:05:43;;;;;;;6.65;1.77;;;6.20;99.30;;;;;;5053082;28;20033;-78
2023/01/16 11:08:18;;;;;;;3.38;1.30;;;6.20;99.20;;;;;;5040610;28;20051;-79
2023/01/16 11:10:46;;;;;;;6.10;1.80;;;6.30;99.20;;;;;;5058767;28;20028;-79
2023/01/16 11:19:21;;;;;;;;;;;6.30;99.20;;;;;;5029980;28;20068;-79
2023/01/16 11:21:58;;;;;;;4.68;1.60;;;6.30;99.00;;;;;;5032069;28;19909;-80
2023/01/16 11:24:31;;;;;;;3.17;1.38;;;6.30;99.10;;;;;;5020577;28;20511;-79
2023/01/16 11:26:58;;;;;;;4.00;1.95;;;6.30;99.10;;;;;;5053228;28;20028;-77
2023/01/16 11:29:30;;;;;;;7.55;1.35;;;6.30;99.00;;;;;;5034769;28;20045;-78
2023/01/16 11:32:02;;;;;;;2.17;1.02;;;6.30;99.20;;;;;;5060298;28;20076;-78
2023/01/16 11:34:29;;;;;;;3.95;1.27;;;6.30;99.10;;;;;;5043470;28;20562;-79
2023/01/16 11:36:59;;;;;;;2.35;1.08;;;6.40;99.00;;;;;;5044160;28;20018;-79
2023/01/16 11:39:28;;;;;;;2.92;1.05;;;6.50;98.70;;;;;;5051859;28;20013;-77
2023/01/16 11:41:56;;;;;;;2.75;1.33;;;6.50;98.80;;;;;;5026563;28;20128;-77
2023/01/16 11:47:25;;;;;;;8.52;1.00;;;6.80;98.50;;;;;;5049511;28;20044;-77
2023/01/16 11:49:53;;;;;;;2.67;1.20;;;6.80;98.30;;;;;;5023073;28;20066;-79
2023/01/16 11:52:27;;;;;;;3.75;1.73;;;6.90;98.30;;;;;;5042267;28;20029;-78
2023/01/16 11:54:58;;;;;;;3.38;1.27;;;6.80;97.80;;;;;;5021322;28;20021;-78
2023/01/16 11:57:47;;;;;;;3.53;0.90;;;6.90;97.80;;;;;;5025800;28;20049;-79
2023/01/16 12:00:45;;;;;;;3.40;1.20;;;6.80;97.90;;;;;;5026592;28;20017;-79
2023/01/16 12:03:45;;;;;;;3.38;1.30;;;6.80;97.70;;;;;;5029672;28;20029;-77
2023/01/16 12:06:29;;;;;;;3.42;1.10;;;6.80;97.70;;;;;;5032396;28;20030;-79
2023/01/16 12:09:24;;;;;;;3.08;1.02;;;6.70;97.70;;;;;;5062957;28;20118;-77
2023/01/16 12:11:52;;;;;;;6.35;1.05;;;6.90;97.80;;;;;;5038337;28;20387;-79
2023/01/16 12:14:39;;;;;;;3.40;1.45;;;6.90;97.50;;;;;;5050068;28;20021;-78
2023/01/16 12:17:34;;;;;;;4.70;1.48;;;6.90;97.40;;;;;;5031440;28;20020;-79
2023/01/16 12:20:22;;;;;;;2.97;0.98;;;6.90;97.50;;;;;;5044536;28;20514;-79
2023/01/16 12:23:26;;;;;;;2.25;0.90;;;7.00;97.50;;;;;;5052194;28;20024;-79
2023/01/16 12:26:05;;;;;;;4.50;1.02;;;7.00;97.20;;;;;;5035753;28;20491;-78
2023/01/16 12:28:55;;;;;;;3.03;1.00;;;7.00;97.40;;;;;;5038236;28;20025;-77
2023/01/16 12:31:50;;;;;;;3.63;1.02;;;7.10;97.40;;;;;;5021209;28;20117;-78
2023/01/16 12:34:47;;;;;;;3.65;1.17;;;7.20;97.30;;;;;;5036636;28;20639;-78
2023/01/16 12:37:21;;;;;;;4.05;1.30;;;7.20;97.50;;;;;;5046632;28;20033;-78
2023/01/16 12:40:16;;;;;;;4.70;0.90;;;7.20;97.60;;;;;;5050132;28;20029;-78
2023/01/16 12:43:22;;;;;;;3.78;0.88;;;7.20;97.50;;;;;;5020883;28;20036;-76
2023/01/16 12:46:01;;;;;;;4.13;0.90;;;7.20;97.30;;;;;;5030136;28;20033;-77
2023/01/16 12:48:29;;;;;;;1.98;1.02;;;7.10;97.30;;;;;;5052116;28;20021;-76
2023/01/16 12:51:16;;;;;;;3.83;1.10;;;7.00;97.60;;;;;;5025968;28;20037;-77
2023/01/16 12:53:54;;;;;;;3.53;1.58;;;7.10;97.40;;;;;;5045395;28;20020;-78
2023/01/16 12:56:25;;;;;;;2.95;1.20;;;7.10;97.40;;;;;;5044784;28;20053;-78
2023/01/16 12:58:57;;;;;;;5.40;1.83;;;7.20;97.40;;;;;;5044273;28;20025;-79
2023/01/16 13:01:34;;;;;;;4.13;1.30;;;7.20;97.30;;;;;;5061320;28;20020;-78
2023/01/16 13:04:11;;;;;;;3.60;1.20;;;7.30;96.90;;;;;;5044253;28;20048;-76
2023/01/16 13:06:40;;;;;;;5.90;1.33;;;7.40;96.90;;;;;;5063334;28;20043;-76
2023/01/16 13:09:37;;;;;;;1.77;0.90;;;7.40;96.70;;;;;;5056652;28;20052;-77
2023/01/16 13:15:13;;;;;;;3.65;1.17;;;7.60;96.30;;;;;;5047510;28;20107;-79
2023/01/16 13:17:55;;;;;;;2.83;0.95;;;7.60;96.00;;;;;;5045566;28;20476;-77
2023/01/16 13:20:24;;;;;;;4.00;0.90;;;7.50;96.10;;;;;;5041216;28;20406;-78
2023/01/16 13:23:02;;;;;;;2.45;1.00;;;7.50;96.20;;;;;;5033317;28;20561;-78
2023/01/16 13:25:42;;;;;;;2.65;0.90;;;7.50;96.50;;;;;;5036706;28;20033;-78
2023/01/16 13:28:42;;;;;;;2.17;0.90;;;7.50;96.80;;;;;;5020475;28;20493;-78
2023/01/16 13:31:30;;;;;;;1.50;0.80;;;7.50;96.50;;;;;;5054666;28;20032;-77
2023/01/16 13:34:21;;;;;;;2.92;1.40;;;7.40;96.60;;;;;;5043743;28;20025;-76
2023/01/16 13:37:01;;;;;;;5.20;1.35;;;7.30;96.50;;;;;;5050236;28;20494;-82
2023/01/16 13:39:48;;;;;;;2.53;1.15;;;7.30;96.60;;;;;;5056052;28;20027;-79
2023/01/16 13:42:17;;;;;;;2.80;1.30;;;7.20;96.60;;;;;;5045590;28;20047;-81
2023/01/16 13:47:38;;;;;;;2.65;1.00;;;7.30;97.00;;;;;;5036367;28;20099;-78
2023/01/16 13:50:29;;;;;;;1.52;0.70;;;7.30;97.10;;;;;;5042808;28;20036;-81
2023/01/16 13:52:59;;;;;;;2.13;0.80;;;7.30;97.20;;;;;;5049687;28;20128;-79
2023/01/16 13:55:32;;;;;;;2.65;0.85;;;7.30;97.10;;;;;;5044460;28;20159;-78
2023/01/16 13:58:09;;;;;;;1.75;0.60;;;7.20;96.90;;;;;;5053929;28;20066;-79
2023/01/16 14:00:37;;;;;;;2.45;0.90;;;7.20;97.00;;;;;;5056194;28;20115;-79
2023/01/16 14:03:32;;;;;;;2.13;0.85;;;7.10;96.90;;;;;;5050082;28;20483;-78
2023/01/16 14:06:10;;;;;;;1.40;0.60;;;7.10;97.10;;;;;;5029217;28;20037;-78
2023/01/16 14:09:08;;;;;;;1.05;0.73;;;7.10;97.40;;;;;;5044935;28;20064;-79
2023/01/16 14:11:36;;;;;;;1.80;0.90;;;7.10;97.30;;;;;;5057601;28;20032;-79